Time;durP1;ratioP1;P1;durP2;ratioP2;P2;SDS_P1;SDS_P2;PMS_P1;PMS_P2;Temp;Humidity;BMP_temperature;BMP_pressure;BME280_temperature;BME280_humidity;BME280_pressure;Samples;Min_cycle;Max_cycle;Signal;HPM_P1;HPM_P2
2022/01/15 00:01:18;;;;;;;;;;;;;;;0.47;100.00;102062.06;4948852;28;19924;-75
2022/01/15 00:04:03;;;;;;;;;;;;;;;0.44;100.00;102063.00;4962709;28;20053;-75
2022/01/15 00:06:46;;;;;;;;;;;;;;;0.44;100.00;102052.50;4962395;28;19925;-74
2022/01/15 00:09:30;;;;;;;;;;;;;;;0.42;100.00;102051.69;4977085;28;20377;-74
2022/01/15 00:12:14;;;;;;;;;;;;;;;0.45;100.00;102038.50;4948920;28;19921;-75
2022/01/15 00:15:00;;;;;;;;;;;;;;;0.45;100.00;102043.75;4949002;28;19925;-74
2022/01/15 00:17:56;;;;;;;;;;;;;;;0.44;100.00;102036.78;4977387;28;19920;-75
2022/01/15 00:20:40;;;;;;;;;;;;;;;0.45;100.00;102038.50;4976854;28;19936;-75
2022/01/15 00:23:24;;;;;;;;;;;;;;;0.40;100.00;102035.13;4962412;28;20051;-73
2022/01/15 00:26:08;;;;;;;;;;;;;;;0.35;100.00;102034.38;4962195;28;19972;-74
2022/01/15 00:28:52;;;;;;;;;;;;;;;0.48;100.00;102029.69;4962569;28;20332;-74
2022/01/15 00:31:36;;;;;;;;;;;;;;;0.50;100.00;102036.63;4976854;28;19968;-74
2022/01/15 00:34:20;;;;;;;;;;;;;;;0.63;100.00;102034.56;4976611;28;20052;-74
2022/01/15 00:37:04;;;;;;;;;;;;;;;0.63;100.00;102040.66;4962421;28;20451;-74
2022/01/15 00:39:48;;;;;;;;;;;;;;;0.67;100.00;102023.94;4961817;28;19995;-74
2022/01/15 00:42:34;;;;;;;;;;;;;;;0.76;100.00;102028.09;4961545;28;20313;-74
2022/01/15 00:45:21;;;;;;;;;;;;;;;0.86;100.00;102013.81;4947887;28;19921;-73
2022/01/15 00:48:05;;;;;;;;;;;;;;;0.89;100.00;102025.09;4962431;28;19920;-75
2022/01/15 00:50:49;;;;;;;;;;;;;;;0.82;100.00;102022.69;4961726;28;20369;-74
2022/01/15 00:53:33;;;;;;;;;;;;;;;0.78;100.00;102014.03;4961520;28;20330;-74
2022/01/15 00:56:17;;;;;;;;;;;;;;;0.87;100.00;102016.41;4961538;28;20051;-75
2022/01/15 00:59:00;;;;;;;;;;;;;;;0.90;100.00;102015.44;4947947;28;20056;-74
2022/01/15 01:01:44;;;;;;;;;;;;;;;0.86;100.00;102009.41;4961836;28;20382;-74
2022/01/15 01:04:28;;;;;;;;;;;;;;;0.81;100.00;102011.31;4962094;28;19972;-75
2022/01/15 01:07:12;;;;;;;;;;;;;;;0.81;100.00;102016.56;4975947;28;19925;-75
2022/01/15 01:24:41;;;;;;;;;;;;;;;0.93;100.00;102010.97;4976291;28;20235;-74
2022/01/15 01:27:30;;;;;;;;;;;;;;;1.11;100.00;102009.59;4975884;28;19964;-74
2022/01/15 01:30:28;;;;;;;;;;;;;;;1.07;100.00;102018.47;4975652;28;19937;-75
2022/01/15 01:33:31;;;;;;;;;;;;;;;1.16;100.00;102021.69;4949252;28;19921;-75
2022/01/15 01:36:41;;;;;;;;;;;;;;;1.01;100.00;102008.13;4963949;28;19921;-75
2022/01/15 01:39:33;;;;;;;;;;;;;;;0.97;100.00;102003.88;4964395;28;19921;-74
2022/01/15 01:45:10;;;;;;;;;;;;;;;1.03;100.00;101996.69;4961608;28;19964;-75
2022/01/15 01:47:55;;;;;;;;;;;;;;;1.00;100.00;101996.78;4961263;28;19925;-75
2022/01/15 01:50:38;;;;;;;;;;;;;;;1.07;100.00;102000.94;4975479;28;20290;-75
2022/01/15 01:53:22;;;;;;;;;;;;;;;0.98;100.00;101993.34;4975359;28;19920;-74
2022/01/15 01:56:06;;;;;;;;;;;;;;;0.89;100.00;102003.22;4975584;28;19972;-75
2022/01/15 01:58:50;;;;;;;;;;;;;;;0.82;100.00;102004.31;4946980;28;19924;-75
2022/01/15 02:01:34;;;;;;;;;;;;;;;0.83;100.00;102003.41;4960349;28;19963;-74
2022/01/15 02:04:18;;;;;;;;;;;;;;;0.83;100.00;102001.63;4960578;28;19964;-75
2022/01/15 02:07:02;;;;;;;;;;;;;;;0.78;100.00;101995.66;4946748;28;20384;-74
2022/01/15 02:09:46;;;;;;;;;;;;;;;0.74;100.00;101993.16;4960709;28;19936;-75
2022/01/15 02:12:30;;;;;;;;;;;;;;;0.66;100.00;101993.31;4960402;28;19920;-74
2022/01/15 02:15:15;;;;;;;;;;;;;;;0.65;100.00;101988.13;4960063;28;19936;-75
2022/01/15 02:17:58;;;;;;;;;;;;;;;0.65;100.00;101988.97;4946502;28;19940;-74
2022/01/15 02:23:32;;;;;;;;;;;;;;;0.67;100.00;101997.69;4960048;28;20389;-74
2022/01/15 02:24:04;;;;;;;;;;;;;;;0.61;100.00;101991.72;4975040;28;20393;-74
2022/01/15 02:26:48;;;;;;;;;;;;;;;0.53;100.00;101981.44;4974783;28;20392;-75
2022/01/15 02:29:32;;;;;;;;;;;;;;;0.52;100.00;101971.84;4946586;28;20029;-74
2022/01/15 02:32:16;;;;;;;;;;;;;;;0.52;100.00;101977.09;4959803;28;19952;-75
2022/01/15 02:35:01;;;;;;;;;;;;;;;0.56;100.00;101968.25;4960134;28;19925;-74
2022/01/15 02:37:45;;;;;;;;;;;;;;;0.48;100.00;101974.59;4974504;28;19920;-74
2022/01/15 02:40:29;;;;;;;;;;;;;;;0.41;100.00;101989.63;4959970;28;20035;-74
2022/01/15 02:43:16;;;;;;;;;;;;;;;0.47;100.00;101972.88;4959766;28;19921;-74
2022/01/15 02:46:18;;;;;;;;;;;;;;;0.53;100.00;101968.31;4974345;28;20396;-75
2022/01/15 02:49:03;;;;;;;;;;;;;;;0.50;100.00;101973.66;4962340;28;19921;-75
2022/01/15 02:51:47;;;;;;;;;;;;;;;0.57;100.00;101959.47;4960063;28;20017;-74
2022/01/15 02:54:32;;;;;;;;;;;;;;;0.67;100.00;101958.34;4974442;28;19970;-75
2022/01/15 02:57:16;;;;;;;;;;;;;;;0.77;100.00;101964.19;4974527;28;19964;-75
2022/01/15 02:59:59;;;;;;;;;;;;;;;0.79;100.00;101955.38;4974488;28;20317;-74
2022/01/15 03:02:43;;;;;;;;;;;;;;;0.77;100.00;101961.56;4946221;28;19921;-74
2022/01/15 03:05:27;;;;;;;;;;;;;;;0.87;100.00;101968.28;4959477;28;20380;-74
2022/01/15 03:08:11;;;;;;;;;;;;;;;0.83;100.00;101964.88;4962978;28;20445;-74
2022/01/15 03:10:55;;;;;;;;;;;;;;;0.80;100.00;101962.34;4963674;28;19937;-74
2022/01/15 03:13:40;;;;;;;;;;;;;;;0.76;100.00;101962.44;4964058;28;19980;-74
2022/01/15 03:16:24;;;;;;;;;;;;;;;0.82;100.00;101957.06;4978647;28;20009;-74
2022/01/15 03:19:08;;;;;;;;;;;;;;;0.84;100.00;101953.44;4963602;28;20318;-74
2022/01/15 03:21:51;;;;;;;;;;;;;;;0.87;100.00;101958.66;4963562;28;19973;-74
2022/01/15 03:24:35;;;;;;;;;;;;;;;0.94;100.00;101949.66;4963297;28;19937;-75
2022/01/15 03:27:23;;;;;;;;;;;;;;;0.88;100.00;101944.59;4978071;28;19964;-74
2022/01/15 03:30:08;;;;;;;;;;;;;;;0.85;100.00;101944.66;4963706;28;19933;-74
2022/01/15 03:32:52;;;;;;;;;;;;;;;0.77;100.00;101935.31;4949739;28;20415;-75
2022/01/15 03:35:36;;;;;;;;;;;;;;;0.73;100.00;101939.78;4978286;28;19925;-75
2022/01/15 03:38:19;;;;;;;;;;;;;;;0.65;100.00;101931.22;4977747;28;19920;-74
2022/01/15 03:41:04;;;;;;;;;;;;;;;0.58;100.00;101932.34;4977897;28;19968;-75
2022/01/15 03:43:47;;;;;;;;;;;;;;;0.70;100.00;101934.63;4949689;28;20349;-75
2022/01/15 03:46:31;;;;;;;;;;;;;;;0.61;100.00;101929.63;4977457;28;20345;-74
2022/01/15 03:49:15;;;;;;;;;;;;;;;0.68;100.00;101936.44;4963345;28;19921;-74
2022/01/15 03:51:59;;;;;;;;;;;;;;;0.77;100.00;101935.31;4949646;28;19964;-74
2022/01/15 03:54:43;;;;;;;;;;;;;;;0.84;100.00;101921.94;4977429;28;19994;-74
2022/01/15 03:57:27;;;;;;;;;;;;;;;0.90;100.00;101924.41;4962710;28;19933;-74
2022/01/15 04:00:16;;;;;;;;;;;;;;;0.87;100.00;101919.25;4963171;28;19922;-74
2022/01/15 04:02:59;;;;;;;;;;;;;;;0.92;100.00;101909.47;4962581;28;19968;-74
2022/01/15 04:05:43;;;;;;;;;;;;;;;0.99;100.00;101905.78;4962460;28;19925;-74
2022/01/15 04:08:27;;;;;;;;;;;;;;;0.95;100.00;101903.28;4977411;28;19962;-75
2022/01/15 04:11:11;;;;;;;;;;;;;;;0.93;100.00;101905.09;4977271;28;19925;-75
2022/01/15 04:13:55;;;;;;;;;;;;;;;0.90;100.00;101905.16;4977118;28;19961;-75
2022/01/15 04:16:39;;;;;;;;;;;;;;;1.04;100.00;101903.00;4977017;28;19968;-74
2022/01/15 04:19:24;;;;;;;;;;;;;;;1.01;100.00;101897.81;4948415;28;19921;-74
2022/01/15 04:22:08;;;;;;;;;;;;;;;0.90;100.00;101900.78;4976972;28;19985;-75
2022/01/15 04:24:52;;;;;;;;;;;;;;;0.91;100.00;101902.50;4990634;23;19968;-72
2022/01/15 04:27:37;;;;;;;;;;;;;;;0.81;100.00;101903.66;5009264;28;20293;-72
2022/01/15 04:30:23;;;;;;;;;;;;;;;0.86;100.00;101904.38;5009143;28;20009;-72
2022/01/15 04:33:07;;;;;;;;;;;;;;;0.73;100.00;101900.41;4996650;28;19921;-72
2022/01/15 04:35:51;;;;;;;;;;;;;;;0.73;100.00;101900.41;4995184;28;19920;-70
2022/01/15 04:38:38;;;;;;;;;;;;;;;0.85;100.00;101896.56;4995571;28;20325;-70
2022/01/15 04:41:22;;;;;;;;;;;;;;;0.90;100.00;101900.78;4995206;28;19964;-72
2022/01/15 04:44:06;;;;;;;;;;;;;;;0.87;100.00;101894.75;4996207;28;19963;-70
2022/01/15 04:46:50;;;;;;;;;;;;;;;0.84;100.00;101887.81;4996113;28;19940;-72
2022/01/15 04:49:34;;;;;;;;;;;;;;;0.84;100.00;101887.81;4995870;28;19968;-70
2022/01/15 04:52:18;;;;;;;;;;;;;;;0.80;100.00;101887.94;4995022;28;19920;-72
2022/01/15 04:55:03;;;;;;;;;;;;;;;0.73;100.00;101891.69;4995233;28;19968;-70
2022/01/15 04:57:46;;;;;;;;;;;;;;;0.67;100.00;101897.97;4994712;28;19923;-70
2022/01/15 05:00:30;;;;;;;;;;;;;;;0.56;100.00;101894.78;4995705;28;20389;-71
2022/01/15 05:03:14;;;;;;;;;;;;;;;0.59;100.00;101896.44;4994727;28;19968;-71
2022/01/15 05:05:58;;;;;;;;;;;;;;;0.60;100.00;101896.41;4994908;28;20389;-70
2022/01/15 05:08:44;;;;;;;;;;;;;;;0.72;100.00;101889.97;4994770;28;19936;-70
2022/01/15 05:11:32;;;;;;;;;;;;;;;0.79;100.00;101886.22;4994680;28;19920;-71
2022/01/15 05:14:17;;;;;;;;;;;;;;;0.79;100.00;101887.09;4995478;28;20005;-70
2022/01/15 05:17:02;;;;;;;;;;;;;;;0.78;100.00;101889.75;4995974;28;20000;-71
2022/01/15 05:19:45;;;;;;;;;;;;;;;0.88;100.00;101876.34;4994542;28;19920;-71
2022/01/15 05:22:29;;;;;;;;;;;;;;;0.79;100.00;101894.09;4994576;28;19920;-71
2022/01/15 05:25:14;;;;;;;;;;;;;;;0.75;100.00;101895.97;4994090;28;20380;-72
2022/01/15 05:27:58;;;;;;;;;;;;;;;0.69;100.00;101890.03;4994393;28;19971;-70
2022/01/15 05:30:42;;;;;;;;;;;;;;;0.60;100.00;101890.28;4994418;28;19920;-70
2022/01/15 05:33:26;;;;;;;;;;;;;;;0.53;100.00;101886.97;4994207;28;19960;-70
2022/01/15 05:36:10;;;;;;;;;;;;;;;0.47;100.00;101894.16;4994232;28;19968;-70
2022/01/15 05:38:53;;;;;;;;;;;;;;;0.44;100.00;101887.22;4994204;28;20420;-69
2022/01/15 05:41:37;;;;;;;;;;;;;;;0.34;100.00;101893.63;4993922;28;19963;-70
2022/01/15 05:44:22;;;;;;;;;;;;;;;0.49;100.00;101887.09;4980152;28;20064;-70
2022/01/15 05:47:06;;;;;;;;;;;;;;;0.53;100.00;101889.59;4995009;28;19954;-71
2022/01/15 05:49:51;;;;;;;;;;;;;;;0.53;100.00;101894.00;4994027;28;19969;-72
2022/01/15 05:52:34;;;;;;;;;;;;;;;0.42;100.00;101891.66;4993834;28;19924;-71
2022/01/15 05:55:18;;;;;;;;;;;;;;;0.41;100.00;101887.31;4993555;28;19964;-69
2022/01/15 05:58:02;;;;;;;;;;;;;;;0.57;100.00;101888.63;4993840;28;20001;-70
2022/01/15 06:00:46;;;;;;;;;;;;;;;0.53;100.00;101889.59;4993498;28;20048;-72
2022/01/15 06:03:30;;;;;;;;;;;;;;;0.55;100.00;101886.94;4993382;28;19924;-72
2022/01/15 06:06:14;;;;;;;;;;;;;;;0.54;100.00;101885.22;4993382;28;19975;-71
2022/01/15 06:08:58;;;;;;;;;;;;;;;0.60;100.00;101891.16;4994600;28;19963;-70
2022/01/15 06:11:43;;;;;;;;;;;;;;;0.59;100.00;101894.69;4979722;28;19921;-70
2022/01/15 06:14:27;;;;;;;;;;;;;;;0.51;100.00;101888.78;4979698;28;19920;-70
2022/01/15 06:17:10;;;;;;;;;;;;;;;0.61;100.00;101890.25;4993460;28;19976;-70
2022/01/15 06:19:54;;;;;;;;;;;;;;;0.47;100.00;101884.53;4994461;28;19925;-72
2022/01/15 06:22:38;;;;;;;;;;;;;;;0.39;100.00;101880.38;4993519;28;19920;-70
2022/01/15 06:25:22;;;;;;;;;;;;;;;0.52;100.00;101885.25;4993051;28;20040;-71
2022/01/15 06:28:06;;;;;;;;;;;;;;;0.53;100.00;101883.50;4979590;28;20072;-71
2022/01/15 06:30:50;;;;;;;;;;;;;;;0.61;100.00;101882.38;4994150;28;19976;-71
2022/01/15 06:33:34;;;;;;;;;;;;;;;0.69;100.00;101874.28;4993997;28;19976;-72
2022/01/15 06:36:18;;;;;;;;;;;;;;;0.75;100.00;101874.94;4994258;28;20282;-71
2022/01/15 06:39:02;;;;;;;;;;;;;;;0.82;100.00;101873.88;4993506;28;19921;-71
2022/01/15 06:41:46;;;;;;;;;;;;;;;0.79;100.00;101875.72;4994076;28;19921;-69
2022/01/15 06:44:30;;;;;;;;;;;;;;;0.73;100.00;101879.41;4994050;28;20044;-71
2022/01/15 06:47:14;;;;;;;;;;;;;;;0.70;100.00;101874.25;4994079;28;20420;-71
2022/01/15 06:49:58;;;;;;;;;;;;;;;0.67;100.00;101868.22;4994001;28;19937;-73
2022/01/15 06:52:41;;;;;;;;;;;;;;;0.68;100.00;101872.56;4994097;28;19924;-71
2022/01/15 06:55:25;;;;;;;;;;;;;;;0.81;100.00;101866.91;4992857;28;19921;-70
2022/01/15 06:58:09;;;;;;;;;;;;;;;0.82;100.00;101868.63;4993121;28;19921;-68
2022/01/15 07:00:53;;;;;;;;;;;;;;;0.71;100.00;101861.97;4992750;28;19984;-70
2022/01/15 07:03:37;;;;;;;;;;;;;;;0.63;100.00;101866.59;4993822;28;19921;-70
2022/01/15 07:06:21;;;;;;;;;;;;;;;0.55;100.00;101868.56;4992884;28;19998;-70
2022/01/15 07:09:05;;;;;;;;;;;;;;;0.57;100.00;101869.38;4993210;28;20354;-69
2022/01/15 07:11:49;;;;;;;;;;;;;;;0.43;100.00;101867.13;4993898;28;20013;-67
2022/01/15 07:14:33;;;;;;;;;;;;;;;0.36;100.00;101862.97;4994865;28;20424;-69
2022/01/15 07:17:17;;;;;;;;;;;;;;;0.50;100.00;101863.44;4994543;28;19936;-69
2022/01/15 07:20:01;;;;;;;;;;;;;;;0.53;100.00;101852.84;4994462;28;19920;-69
2022/01/15 07:22:45;;;;;;;;;;;;;;;0.49;100.00;101859.09;4993116;28;19925;-69
2022/01/15 07:25:29;;;;;;;;;;;;;;;0.37;100.00;101850.72;4991608;28;19976;-69
2022/01/15 07:28:13;;;;;;;;;;;;;;;0.43;100.00;101855.81;4991821;28;20026;-69
2022/01/15 07:30:57;;;;;;;;;;;;;;;0.58;100.00;101844.84;4991851;28;19960;-69
2022/01/15 07:33:41;;;;;;;;;;;;;;;0.52;100.00;101858.16;4991725;28;19920;-68
2022/01/15 07:36:25;;;;;;;;;;;;;;;0.39;100.00;101859.38;4991726;28;19981;-70
2022/01/15 07:39:09;;;;;;;;;;;;;;;0.40;100.00;101851.50;4977769;28;19921;-70
2022/01/15 07:41:55;;;;;;;;;;;;;;;0.37;100.00;101862.06;4991721;28;19919;-70
2022/01/15 07:44:39;;;;;;;;;;;;;;;0.39;100.00;101862.00;4991854;28;19963;-69
2022/01/15 07:47:23;;;;;;;;;;;;;;;0.32;100.00;101860.47;4991350;28;19967;-70
2022/01/15 07:50:08;;;;;;;;;;;;;;;0.44;100.00;101863.59;4992294;28;19964;-69
2022/01/15 07:52:52;;;;;;;;;;;;;;;0.49;100.00;101859.09;4992480;28;19972;-70
2022/01/15 07:55:36;;;;;;;;;;;;;;;0.52;100.00;101861.63;4994690;28;19936;-70
2022/01/15 07:58:20;;;;;;;;;;;;;;;0.57;100.00;101862.38;4995859;28;19920;-70
2022/01/15 08:01:07;;;;;;;;;;;;;;;0.63;100.00;101854.31;4994554;28;20013;-70
2022/01/15 08:03:51;;;;;;;;;;;;;;;0.66;100.00;101856.84;4981009;28;19920;-70
2022/01/15 08:06:35;;;;;;;;;;;;;;;0.72;100.00;101854.06;4980911;28;19925;-70
2022/01/15 08:09:19;;;;;;;;;;;;;;;0.87;100.00;101852.75;4995398;28;19960;-71
2022/01/15 08:12:03;;;;;;;;;;;;;;;0.86;100.00;101857.13;4994649;28;19960;-71
2022/01/15 08:14:47;;;;;;;;;;;;;;;0.93;100.00;101847.31;4995446;28;19980;-71
2022/01/15 08:17:32;;;;;;;;;;;;;;;0.86;100.00;101846.63;4995640;28;19960;-71
2022/01/15 08:20:15;;;;;;;;;;;;;;;0.89;100.00;101846.56;4994421;28;19921;-71
2022/01/15 08:22:59;;;;;;;;;;;;;;;0.98;100.00;101843.66;4994670;28;19944;-70
2022/01/15 08:25:53;;;;;;;;;;;;;;;0.96;100.00;101841.97;5070422;28;20369;-70
2022/01/15 08:28:39;;;;;;;;;;;;;;;1.03;100.00;101844.34;5069508;28;19924;-70
2022/01/15 08:31:23;;;;;;;;;;;;;;;1.08;100.00;101845.09;5069419;28;19928;-70
2022/01/15 08:34:07;;;;;;;;;;;;;;;1.08;100.00;101852.97;5060741;28;19928;-70
2022/01/15 08:36:51;;;;;;;;;;;;;;;1.13;100.00;101845.78;5049401;28;19967;-70
2022/01/15 08:39:36;;;;;;;;;;;;;;;1.28;100.00;101850.59;5050229;28;20012;-70
2022/01/15 08:42:19;;;;;;;;;;;;;;;1.39;100.00;101853.75;5049429;28;19924;-70
2022/01/15 08:45:05;;;;;;;;;;;;;;;1.41;100.00;101841.41;5050483;28;20328;-70
2022/01/15 08:47:49;;;;;;;;;;;;;;;1.49;100.00;101852.53;5050467;28;20252;-70
2022/01/15 08:50:33;;;;;;;;;;;;;;;1.55;100.00;101844.44;5051196;28;19924;-70
2022/01/15 08:53:18;;;;;;;;;;;;;;;1.63;100.00;101854.69;5035496;28;19924;-70
2022/01/15 08:56:03;;;;;;;;;;;;;;;1.64;100.00;101849.41;5048985;28;19935;-70
2022/01/15 08:58:47;;;;;;;;;;;;;;;1.64;100.00;101852.03;5035266;28;19924;-70
2022/01/15 09:01:31;;;;;;;;;;;;;;;1.59;100.00;101853.09;5049048;28;19967;-70
2022/01/15 09:04:15;;;;;;;;;;;;;;;1.57;100.00;101858.38;5034910;28;19975;-69
2022/01/15 09:06:59;;;;;;;;;;;;;;;1.63;100.00;101852.94;5049085;28;19959;-70
2022/01/15 09:09:43;;;;;;;;;;;;;;;1.74;100.00;101839.44;5049505;28;20372;-69
2022/01/15 09:12:27;;;;;;;;;;;;;;;1.87;100.00;101832.88;5048838;28;19923;-70
2022/01/15 09:15:11;;;;;;;;;;;;;;;1.94;100.00;101837.84;5048451;28;20083;-70
2022/01/15 09:17:55;;;;;;;;;;;;;;;1.90;100.00;101830.13;5034656;28;19927;-70
2022/01/15 09:20:39;;;;;;;;;;;;;;;1.94;100.00;101827.34;5034683;28;19943;-69
2022/01/15 09:23:23;;;;;;;;;;;;;;;1.87;100.00;101828.44;5049490;28;19924;-71
2022/01/15 09:26:18;;;;;;;;;;;;;;;2.02;100.00;101827.06;5048560;28;19928;-71
2022/01/15 09:32:14;;;;;;;;;;;;;;;2.25;100.00;101832.38;5048706;28;20102;-71
2022/01/15 09:34:58;;;;;;;;;;;;;;;2.29;100.00;101829.56;5048948;28;20012;-71
2022/01/15 09:37:42;;;;;;;;;;;;;;;2.36;100.00;101825.81;5020973;28;19928;-71
2022/01/15 09:40:26;;;;;;;;;;;;;;;2.29;100.00;101819.06;5034773;28;20356;-71
2022/01/15 09:43:10;;;;;;;;;;;;;;;2.34;100.00;101816.25;5035690;28;19924;-71
2022/01/15 09:45:54;;;;;;;;;;;;;;;2.39;100.00;101822.22;5034842;28;20363;-71
2022/01/15 09:48:38;;;;;;;;;;;;;;;2.38;100.00;101817.88;5034908;28;20023;-71
2022/01/15 09:51:22;;;;;;;;;;;;;;;2.56;100.00;101815.44;5020985;28;20426;-71
2022/01/15 09:54:06;;;;;;;;;;;;;;;2.60;100.00;101806.47;5035920;28;20403;-71
2022/01/15 09:56:50;;;;;;;;;;;;;;;2.66;100.00;101803.63;5034552;28;19939;-71
2022/01/15 09:59:34;;;;;;;;;;;;;;;2.67;100.00;101794.81;5034721;28;19924;-71
2022/01/15 10:02:18;;;;;;;;;;;;;;;2.65;100.00;101796.66;5021076;28;19924;-69
2022/01/15 10:05:02;;;;;;;;;;;;;;;2.60;100.00;101804.72;5034203;28;20305;-71
2022/01/15 10:07:53;;;;;;;;;;;;;;;2.53;100.00;101791.84;5034507;28;19983;-69
2022/01/15 10:10:38;;;;;;;;;;;;;;;2.59;100.00;101791.59;5034464;28;19924;-69
2022/01/15 10:13:23;;;;;;;;;;;;;;;2.72;100.00;101782.34;5035486;28;20036;-71
2022/01/15 10:16:06;;;;;;;;;;;;;;;2.66;100.00;101787.84;5020391;28;19924;-71
2022/01/15 10:18:50;;;;;;;;;;;;;;;2.62;100.00;101780.97;5035038;28;19924;-71
2022/01/15 10:21:34;;;;;;;;;;;;;;;2.63;100.00;101778.28;5034435;28;19979;-71
2022/01/15 10:24:18;;;;;;;;;;;;;;;2.70;100.00;101778.91;5019930;28;19968;-71
2022/01/15 10:27:21;;;;;;;;;;;;;;;2.76;100.00;101773.41;5034524;28;20027;-71
2022/01/15 10:30:07;;;;;;;;;;;;;;;2.70;100.00;101768.34;5034777;28;19986;-70
2022/01/15 10:32:52;;;;;;;;;;;;;;;2.83;100.00;101769.63;5035031;28;20058;-71
2022/01/15 10:35:38;;;;;;;;;;;;;;;2.80;100.00;101765.31;5034129;28;19924;-71
2022/01/15 10:38:21;;;;;;;;;;;;;;;2.81;100.00;101766.16;5019834;28;20024;-71
2022/01/15 10:41:05;;;;;;;;;;;;;;;2.77;100.00;101760.19;5033695;28;20028;-71
2022/01/15 10:43:49;;;;;;;;;;;;;;;2.87;100.00;101752.78;5034540;28;19931;-71
2022/01/15 10:46:34;;;;;;;;;;;;;;;2.87;100.00;101758.03;5033761;28;20415;-69
2022/01/15 10:49:24;;;;;;;;;;;;;;;2.87;100.00;101760.69;5032824;28;19923;-70
2022/01/15 10:52:09;;;;;;;;;;;;;;;2.90;100.00;101755.28;5033383;28;20008;-71
2022/01/15 10:54:53;;;;;;;;;;;;;;;2.94;100.00;101751.63;5019379;28;20004;-70
2022/01/15 10:57:44;;;;;;;;;;;;;;;3.02;100.00;101749.56;5034506;28;19939;-71
2022/01/15 11:00:29;;;;;;;;;;;;;;;3.09;100.00;101735.19;5033389;28;19983;-70
2022/01/15 11:03:16;;;;;;;;;;;;;;;2.99;100.00;101747.00;5019363;28;19963;-70
2022/01/15 11:06:00;;;;;;;;;;;;;;;2.99;100.00;101747.00;5033106;28;19928;-69
2022/01/15 11:08:44;;;;;;;;;;;;;;;2.84;100.00;101742.38;5034507;28;19939;-70
2022/01/15 11:11:32;;;;;;;;;;;;;;;2.83;100.00;101732.75;5033207;28;19956;-70
2022/01/15 11:14:16;;;;;;;;;;;;;;;2.88;100.00;101730.78;5033123;28;19923;-70
2022/01/15 11:17:00;;;;;;;;;;;;;;;2.94;100.00;101720.00;5033061;28;19924;-70
2022/01/15 11:19:44;;;;;;;;;;;;;;;3.03;100.00;101719.66;5034435;28;19963;-70
2022/01/15 11:22:28;;;;;;;;;;;;;;;2.83;100.00;101715.16;5018902;28;19924;-70
2022/01/15 11:25:13;;;;;;;;;;;;;;;2.77;100.00;101718.06;5032367;28;19947;-70
2022/01/15 11:27:57;;;;;;;;;;;;;;;2.89;100.00;101727.22;5032975;28;19925;-70
2022/01/15 11:30:41;;;;;;;;;;;;;;;2.88;100.00;101725.50;5033132;28;19928;-70
2022/01/15 11:33:26;;;;;;;;;;;;;;;2.78;100.00;101716.25;5032831;28;19928;-70
2022/01/15 11:36:28;;;;;;;;;;;;;;;2.91;100.00;101709.56;5032718;28;19925;-70
2022/01/15 11:39:12;;;;;;;;;;;;;;;3.04;100.00;101710.81;5032746;28;20383;-70
2022/01/15 11:41:57;;;;;;;;;;;;;;;3.03;100.00;101709.09;5018839;28;20423;-70
2022/01/15 11:44:41;;;;;;;;;;;;;;;2.98;100.00;101718.97;5018419;28;19971;-70
2022/01/15 11:47:26;;;;;;;;;;;;;;;3.12;100.00;101714.84;5032543;28;19939;-69
2022/01/15 11:50:20;;;;;;;;;;;;;;;3.09;100.00;101709.72;5032273;28;20296;-70
2022/01/15 11:53:05;;;;;;;;;;;;;;;3.12;100.00;101703.47;5032651;28;19924;-70
2022/01/15 11:56:07;;;;;;;;;;;;;;;3.02;100.00;101702.13;5032367;28;20403;-70
2022/01/15 11:58:52;;;;;;;;;;;;;;;3.07;100.00;101700.16;5032253;28;19936;-70
2022/01/15 12:01:41;;;;;;;;;;;;;;;3.12;100.00;101691.13;5032171;28;19939;-70
2022/01/15 12:04:31;;;;;;;;;;;;;;;3.13;100.00;101689.38;5033090;28;19932;-70
2022/01/15 12:07:15;;;;;;;;;;;;;;;3.07;100.00;101679.06;5033407;28;19927;-70
2022/01/15 12:09:59;;;;;;;;;;;;;;;3.09;100.00;101682.50;5032293;28;20309;-71
2022/01/15 12:12:45;;;;;;;;;;;;;;;3.18;100.00;101680.34;5032313;28;19963;-71
2022/01/15 12:15:29;;;;;;;;;;;;;;;3.25;100.00;101680.94;5032152;28;19924;-70
2022/01/15 12:18:17;;;;;;;;;;;;;;;3.32;100.00;101679.75;5032044;28;19928;-71
2022/01/15 12:21:01;;;;;;;;;;;;;;;3.33;100.00;101682.31;5032129;28;19951;-71
2022/01/15 12:23:45;;;;;;;;;;;;;;;3.22;100.00;101674.03;5034542;28;19932;-71
2022/01/15 12:26:29;;;;;;;;;;;;;;;3.22;100.00;101678.41;5024059;28;20430;-71
2022/01/15 12:29:20;;;;;;;;;;;;;;;3.33;100.00;101666.50;5053046;28;19924;-72
2022/01/15 12:32:05;;;;;;;;;;;;;;;3.37;100.00;101669.88;5053095;28;20072;-71
2022/01/15 12:34:48;;;;;;;;;;;;;;;3.24;100.00;101664.25;5037740;28;19924;-70
2022/01/15 12:37:32;;;;;;;;;;;;;;;3.40;100.00;101662.72;5037985;28;19966;-70
2022/01/15 12:40:16;;;;;;;;;;;;;;;3.35;100.00;101661.19;5037716;28;20076;-71
2022/01/15 12:43:01;;;;;;;;;;;;;;;3.33;100.00;101652.50;5037522;28;19939;-70
2022/01/15 12:45:46;;;;;;;;;;;;;;;3.38;100.00;101647.88;5052708;28;20364;-72
2022/01/15 12:48:31;;;;;;;;;;;;;;;3.45;100.00;101642.25;5037705;28;19970;-70
2022/01/15 12:51:18;;;;;;;;;;;;;;;3.48;100.00;101639.50;5052512;28;19923;-71
2022/01/15 12:54:02;;;;;;;;;;;;;;;3.48;100.00;101628.09;5037965;28;20344;-71
2022/01/15 12:56:46;;;;;;;;;;;;;;;3.45;100.00;101622.97;5052535;28;20334;-71
2022/01/15 12:59:30;;;;;;;;;;;;;;;3.59;100.00;101625.84;5052471;28;19923;-71
2022/01/15 13:02:14;;;;;;;;;;;;;;;3.64;100.00;101618.59;5037395;28;19936;-71
2022/01/15 13:04:58;;;;;;;;;;;;;;;3.62;100.00;101610.75;5037284;28;19975;-71
2022/01/15 13:07:52;;;;;;;;;;;;;;;3.57;100.00;101615.34;5037593;28;19927;-69
2022/01/15 13:13:38;;;;;;;;;;;;;;;3.51;100.00;101607.72;5056732;28;20058;-71
2022/01/15 13:16:23;;;;;;;;;;;;;;;3.46;100.00;101593.03;5056205;28;19954;-71
2022/01/15 13:19:07;;;;;;;;;;;;;;;3.42;100.00;101586.16;5041093;28;20047;-71
2022/01/15 13:21:51;;;;;;;;;;;;;;;3.59;100.00;101588.94;5056336;28;20395;-69
2022/01/15 13:24:35;;;;;;;;;;;;;;;3.66;100.00;101577.19;5040566;28;20408;-68
2022/01/15 13:27:20;;;;;;;;;;;;;;;3.76;100.00;101573.22;5055938;28;19924;-71
2022/01/15 13:30:04;;;;;;;;;;;;;;;3.90;100.00;101573.41;5027525;28;19927;-71
2022/01/15 13:32:51;;;;;;;;;;;;;;;3.80;100.00;101573.00;5041249;28;19939;-71
2022/01/15 13:35:37;;;;;;;;;;;;;;;3.78;100.00;101573.97;5055860;28;19970;-71
2022/01/15 13:38:21;;;;;;;;;;;;;;;3.94;100.00;101577.66;5040907;28;20364;-71
2022/01/15 13:41:23;;;;;;;;;;;;;;;3.78;100.00;101571.34;5040737;28;19923;-71
2022/01/15 13:44:13;;;;;;;;;;;;;;;3.74;100.00;101567.16;5055797;28;19928;-71
2022/01/15 13:47:04;;;;;;;;;;;;;;;3.64;100.00;101581.69;5040714;28;20073;-69
2022/01/15 13:53:06;;;;;;;;;;;;;;;3.65;100.00;101594.78;5043378;28;19924;-71
2022/01/15 13:55:50;;;;;;;;;;;;;;;3.64;100.00;101592.22;5055472;28;20388;-70
2022/01/15 13:58:34;;;;;;;;;;;;;;;3.71;100.00;101591.00;5055492;28;19924;-71
2022/01/15 14:01:19;;;;;;;;;;;;;;;3.64;100.00;101586.97;5040162;28;19924;-70
2022/01/15 14:04:22;;;;;;;;;;;;;;;3.74;100.00;101586.47;5040056;28;19986;-71
2022/01/15 14:07:07;;;;;;;;;;;;;;;3.74;100.00;101578.53;5055508;28;19923;-71
2022/01/15 14:09:53;;;;;;;;;;;;;;;3.62;100.00;101578.22;5040084;28;19967;-70
2022/01/15 14:12:37;;;;;;;;;;;;;;;3.68;100.00;101572.69;5055320;28;19923;-70
2022/01/15 14:15:29;;;;;;;;;;;;;;;3.74;100.00;101577.69;5039906;28;19924;-71
2022/01/15 14:18:15;;;;;;;;;;;;;;;3.57;100.00;101572.31;5040453;28;19940;-70
2022/01/15 14:23:44;;;;;;;;;;;;;;;3.65;100.00;101573.69;5054922;28;19928;-71
2022/01/15 14:26:28;;;;;;;;;;;;;;;3.59;100.00;101562.56;5040044;28;19958;-71
2022/01/15 14:29:12;;;;;;;;;;;;;;;3.72;100.00;101563.72;5040172;28;20388;-68
2022/01/15 14:31:59;;;;;;;;;;;;;;;3.78;100.00;101555.53;5026002;28;19940;-71
2022/01/15 14:34:42;;;;;;;;;;;;;;;3.68;100.00;101560.38;5055071;28;20439;-69
2022/01/15 14:37:29;;;;;;;;;;;;;;;3.61;100.00;101560.69;5040195;28;20011;-70